sensor_id;sensor_type;location;lat;lon;timestamp;temperature;humidity
69999;DHT22;57339;52.156;5.372;2024-01-15T00:02:08;3.20;99.90
69999;DHT22;57339;52.156;5.372;2024-01-15T00:04:41;3.10;99.90
69999;DHT22;57339;52.156;5.372;2024-01-15T00:07:08;3.10;99.90
69999;DHT22;57339;52.156;5.372;2024-01-15T00:09:36;3.00;99.90
69999;DHT22;57339;52.156;5.372;2024-01-15T00:12:03;3.00;99.90
69999;DHT22;57339;52.156;5.372;2024-01-15T00:14:30;3.00;99.90
69999;DHT22;57339;52.156;5.372;2024-01-15T00:16:57;3.00;99.90
69999;DHT22;57339;52.156;5.372;2024-01-15T00:19:24;3.00;99.90
69999;DHT22;57339;52.156;5.372;2024-01-15T00:21:51;3.00;99.90
69999;DHT22;57339;52.156;5.372;2024-01-15T00:24:18;3.00;99.90
69999;DHT22;57339;52.156;5.372;2024-01-15T00:26:45;3.00;99.90
69999;DHT22;57339;52.156;5.372;2024-01-15T00:29:12;3.00;99.90
69999;DHT22;57339;52.156;5.372;2024-01-15T00:31:45;2.90;99.90
69999;DHT22;57339;52.156;5.372;2024-01-15T00:34:12;2.90;99.90
69999;DHT22;57339;52.156;5.372;2024-01-15T00:36:42;2.90;99.90
69999;DHT22;57339;52.156;5.372;2024-01-15T00:39:11;2.90;99.90
69999;DHT22;57339;52.156;5.372;2024-01-15T00:41:38;2.90;99.90
69999;DHT22;57339;52.156;5.372;2024-01-15T00:44:05;2.90;99.90
69999;DHT22;57339;52.156;5.372;2024-01-15T00:46:32;2.80;99.90
69999;DHT22;57339;52.156;5.372;2024-01-15T00:48:59;2.90;99.90
69999;DHT22;57339;52.156;5.372;2024-01-15T00:51:26;2.80;99.90
69999;DHT22;57339;52.156;5.372;2024-01-15T00:53:53;2.80;99.90
69999;DHT22;57339;52.156;5.372;2024-01-15T00:56:20;2.80;99.90
69999;DHT22;57339;52.156;5.372;2024-01-15T00:58:47;2.80;99.90
69999;DHT22;57339;52.156;5.372;2024-01-15T01:01:17;2.70;99.90
69999;DHT22;57339;52.156;5.372;2024-01-15T01:03:46;2.70;99.90
69999;DHT22;57339;52.156;5.372;2024-01-15T01:06:14;2.70;99.90
69999;DHT22;57339;52.156;5.372;2024-01-15T01:08:43;2.70;99.90
69999;DHT22;57339;52.156;5.372;2024-01-15T01:11:17;2.60;99.90
69999;DHT22;57339;52.156;5.372;2024-01-15T01:13:47;2.60;99.90
69999;DHT22;57339;52.156;5.372;2024-01-15T01:16:14;2.60;99.90
69999;DHT22;57339;52.156;5.372;2024-01-15T01:18:42;2.60;99.90
69999;DHT22;57339;52.156;5.372;2024-01-15T01:21:09;2.60;99.90
69999;DHT22;57339;52.156;5.372;2024-01-15T01:23:36;2.60;99.90
69999;DHT22;57339;52.156;5.372;2024-01-15T01:26:03;2.50;99.90
69999;DHT22;57339;52.156;5.372;2024-01-15T01:28:30;2.60;99.90
69999;DHT22;57339;52.156;5.372;2024-01-15T01:30:57;2.50;99.90
69999;DHT22;57339;52.156;5.372;2024-01-15T01:33:24;2.50;99.90
69999;DHT22;57339;52.156;5.372;2024-01-15T01:35:51;2.50;99.90
69999;DHT22;57339;52.156;5.372;2024-01-15T01:38:18;2.50;99.90
69999;DHT22;57339;52.156;5.372;2024-01-15T01:40:48;2.60;99.90
69999;DHT22;57339;52.156;5.372;2024-01-15T01:43:18;2.50;99.90
69999;DHT22;57339;52.156;5.372;2024-01-15T01:45:48;2.60;99.90
69999;DHT22;57339;52.156;5.372;2024-01-15T01:48:18;2.50;99.90
69999;DHT22;57339;52.156;5.372;2024-01-15T01:50:48;2.50;99.90
69999;DHT22;57339;52.156;5.372;2024-01-15T01:53:19;2.50;99.90
69999;DHT22;57339;52.156;5.372;2024-01-15T01:55:50;2.40;99.90
69999;DHT22;57339;52.156;5.372;2024-01-15T01:58:18;2.40;99.90
69999;DHT22;57339;52.156;5.372;2024-01-15T02:00:49;2.40;99.90
69999;DHT22;57339;52.156;5.372;2024-01-15T02:03:16;2.40;99.90
69999;DHT22;57339;52.156;5.372;2024-01-15T02:05:43;2.50;99.90
69999;DHT22;57339;52.156;5.372;2024-01-15T02:08:13;2.40;99.90
69999;DHT22;57339;52.156;5.372;2024-01-15T02:10:40;2.50;99.90
69999;DHT22;57339;52.156;5.372;2024-01-15T02:13:07;2.60;99.90
69999;DHT22;57339;52.156;5.372;2024-01-15T02:15:35;2.60;99.90
69999;DHT22;57339;52.156;5.372;2024-01-15T02:18:06;2.70;99.90
69999;DHT22;57339;52.156;5.372;2024-01-15T02:20:33;2.70;99.90
69999;DHT22;57339;52.156;5.372;2024-01-15T02:23:13;2.70;99.90
69999;DHT22;57339;52.156;5.372;2024-01-15T02:25:46;2.70;99.90
69999;DHT22;57339;52.156;5.372;2024-01-15T02:28:15;2.70;99.90
69999;DHT22;57339;52.156;5.372;2024-01-15T02:30:44;2.70;99.90
69999;DHT22;57339;52.156;5.372;2024-01-15T02:33:18;2.80;99.90
69999;DHT22;57339;52.156;5.372;2024-01-15T02:35:48;2.80;99.90
69999;DHT22;57339;52.156;5.372;2024-01-15T02:38:19;2.80;99.90
69999;DHT22;57339;52.156;5.372;2024-01-15T02:40:49;2.80;99.90
69999;DHT22;57339;52.156;5.372;2024-01-15T02:43:19;2.80;99.90
69999;DHT22;57339;52.156;5.372;2024-01-15T02:45:46;2.80;99.90
69999;DHT22;57339;52.156;5.372;2024-01-15T02:48:14;2.80;99.90
69999;DHT22;57339;52.156;5.372;2024-01-15T02:50:42;2.80;99.90
69999;DHT22;57339;52.156;5.372;2024-01-15T02:53:09;2.80;99.90
69999;DHT22;57339;52.156;5.372;2024-01-15T02:55:36;2.80;99.90
69999;DHT22;57339;52.156;5.372;2024-01-15T02:58:04;2.70;99.90
69999;DHT22;57339;52.156;5.372;2024-01-15T03:00:31;2.80;99.90
69999;DHT22;57339;52.156;5.372;2024-01-15T03:02:58;2.70;99.90
69999;DHT22;57339;52.156;5.372;2024-01-15T03:05:25;2.80;99.90
69999;DHT22;57339;52.156;5.372;2024-01-15T03:07:52;2.80;99.90
69999;DHT22;57339;52.156;5.372;2024-01-15T03:10:19;2.80;99.90
69999;DHT22;57339;52.156;5.372;2024-01-15T03:12:48;2.80;99.90
69999;DHT22;57339;52.156;5.372;2024-01-15T03:15:19;2.80;99.90
69999;DHT22;57339;52.156;5.372;2024-01-15T03:17:49;2.80;99.90
69999;DHT22;57339;52.156;5.372;2024-01-15T03:20:19;2.90;99.90
69999;DHT22;57339;52.156;5.372;2024-01-15T03:22:49;2.90;99.90
69999;DHT22;57339;52.156;5.372;2024-01-15T03:25:19;2.80;99.90
69999;DHT22;57339;52.156;5.372;2024-01-15T03:27:49;2.80;99.90
69999;DHT22;57339;52.156;5.372;2024-01-15T03:30:19;2.80;99.90
69999;DHT22;57339;52.156;5.372;2024-01-15T03:32:49;2.80;99.90
69999;DHT22;57339;52.156;5.372;2024-01-15T03:35:17;2.80;99.90
69999;DHT22;57339;52.156;5.372;2024-01-15T03:37:44;2.80;99.90
69999;DHT22;57339;52.156;5.372;2024-01-15T03:40:11;2.80;99.90
69999;DHT22;57339;52.156;5.372;2024-01-15T03:42:38;2.80;99.90
69999;DHT22;57339;52.156;5.372;2024-01-15T03:45:06;2.80;99.90
69999;DHT22;57339;52.156;5.372;2024-01-15T03:47:33;2.90;99.90
69999;DHT22;57339;52.156;5.372;2024-01-15T03:50:00;2.90;99.90
69999;DHT22;57339;52.156;5.372;2024-01-15T03:52:27;3.00;99.90
69999;DHT22;57339;52.156;5.372;2024-01-15T03:54:54;3.00;99.90
69999;DHT22;57339;52.156;5.372;2024-01-15T03:57:21;3.00;99.90
69999;DHT22;57339;52.156;5.372;2024-01-15T03:59:48;3.00;99.90
69999;DHT22;57339;52.156;5.372;2024-01-15T04:02:15;2.90;99.90
69999;DHT22;57339;52.156;5.372;2024-01-15T04:04:44;2.90;99.90
69999;DHT22;57339;52.156;5.372;2024-01-15T04:07:13;2.90;99.90
69999;DHT22;57339;52.156;5.372;2024-01-15T04:09:40;2.80;99.90
69999;DHT22;57339;52.156;5.372;2024-01-15T04:12:07;2.80;99.90
69999;DHT22;57339;52.156;5.372;2024-01-15T04:14:34;2.80;99.90
69999;DHT22;57339;52.156;5.372;2024-01-15T04:17:01;2.80;99.90
69999;DHT22;57339;52.156;5.372;2024-01-15T04:19:28;2.80;99.90
69999;DHT22;57339;52.156;5.372;2024-01-15T04:21:55;2.70;99.90
69999;DHT22;57339;52.156;5.372;2024-01-15T04:24:22;2.70;99.90
69999;DHT22;57339;52.156;5.372;2024-01-15T04:26:49;2.80;99.90
69999;DHT22;57339;52.156;5.372;2024-01-15T04:29:19;2.70;99.90
69999;DHT22;57339;52.156;5.372;2024-01-15T04:31:48;2.70;99.90
69999;DHT22;57339;52.156;5.372;2024-01-15T04:34:16;2.70;99.90
69999;DHT22;57339;52.156;5.372;2024-01-15T04:36:45;2.70;99.90
69999;DHT22;57339;52.156;5.372;2024-01-15T04:39:13;2.70;99.90
69999;DHT22;57339;52.156;5.372;2024-01-15T04:41:41;2.60;99.90
69999;DHT22;57339;52.156;5.372;2024-01-15T04:44:07;2.70;99.90
69999;DHT22;57339;52.156;5.372;2024-01-15T04:46:34;2.70;99.90
69999;DHT22;57339;52.156;5.372;2024-01-15T04:49:01;2.70;99.90
69999;DHT22;57339;52.156;5.372;2024-01-15T04:51:28;2.70;99.90
69999;DHT22;57339;52.156;5.372;2024-01-15T04:53:55;2.70;99.90
69999;DHT22;57339;52.156;5.372;2024-01-15T04:56:22;2.60;99.90
69999;DHT22;57339;52.156;5.372;2024-01-15T04:58:49;2.60;99.90
69999;DHT22;57339;52.156;5.372;2024-01-15T05:01:19;2.60;99.90
69999;DHT22;57339;52.156;5.372;2024-01-15T05:03:50;2.60;99.90
69999;DHT22;57339;52.156;5.372;2024-01-15T05:06:20;2.70;99.90
69999;DHT22;57339;52.156;5.372;2024-01-15T05:08:50;2.60;99.90
69999;DHT22;57339;52.156;5.372;2024-01-15T05:11:20;2.60;99.90
69999;DHT22;57339;52.156;5.372;2024-01-15T05:13:50;2.60;99.90
69999;DHT22;57339;52.156;5.372;2024-01-15T05:16:20;2.60;99.90
69999;DHT22;57339;52.156;5.372;2024-01-15T05:18:50;2.70;99.90
69999;DHT22;57339;52.156;5.372;2024-01-15T05:21:20;2.70;99.90
69999;DHT22;57339;52.156;5.372;2024-01-15T05:23:50;2.60;99.90
69999;DHT22;57339;52.156;5.372;2024-01-15T05:26:26;2.70;99.90
69999;DHT22;57339;52.156;5.372;2024-01-15T05:28:53;2.70;99.90
69999;DHT22;57339;52.156;5.372;2024-01-15T05:31:20;2.70;99.90
69999;DHT22;57339;52.156;5.372;2024-01-15T05:33:50;2.70;99.90
69999;DHT22;57339;52.156;5.372;2024-01-15T05:36:20;2.70;99.90
69999;DHT22;57339;52.156;5.372;2024-01-15T05:38:50;2.70;99.90
69999;DHT22;57339;52.156;5.372;2024-01-15T05:41:20;2.70;99.90
69999;DHT22;57339;52.156;5.372;2024-01-15T05:43:48;2.70;99.90
69999;DHT22;57339;52.156;5.372;2024-01-15T05:46:16;2.70;99.90
69999;DHT22;57339;52.156;5.372;2024-01-15T05:48:45;2.80;99.90
69999;DHT22;57339;52.156;5.372;2024-01-15T05:51:15;2.70;99.90
69999;DHT22;57339;52.156;5.372;2024-01-15T05:53:42;2.70;99.90
69999;DHT22;57339;52.156;5.372;2024-01-15T05:56:10;2.70;99.90
69999;DHT22;57339;52.156;5.372;2024-01-15T05:58:37;2.70;99.90
69999;DHT22;57339;52.156;5.372;2024-01-15T06:01:04;2.70;99.90
69999;DHT22;57339;52.156;5.372;2024-01-15T06:03:31;2.80;99.90
69999;DHT22;57339;52.156;5.372;2024-01-15T06:05:58;2.70;99.90
69999;DHT22;57339;52.156;5.372;2024-01-15T06:08:25;2.70;99.90
69999;DHT22;57339;52.156;5.372;2024-01-15T06:10:52;2.70;99.90
69999;DHT22;57339;52.156;5.372;2024-01-15T06:13:19;2.70;99.90
69999;DHT22;57339;52.156;5.372;2024-01-15T06:15:46;2.70;99.90
69999;DHT22;57339;52.156;5.372;2024-01-15T06:18:16;2.70;99.90
69999;DHT22;57339;52.156;5.372;2024-01-15T06:20:46;2.70;99.90
69999;DHT22;57339;52.156;5.372;2024-01-15T06:23:14;2.70;99.90
69999;DHT22;57339;52.156;5.372;2024-01-15T06:25:44;2.70;99.90
69999;DHT22;57339;52.156;5.372;2024-01-15T06:28:11;2.70;99.90
69999;DHT22;57339;52.156;5.372;2024-01-15T06:30:38;2.70;99.90
69999;DHT22;57339;52.156;5.372;2024-01-15T06:33:05;2.70;99.90
69999;DHT22;57339;52.156;5.372;2024-01-15T06:35:32;2.70;99.90
69999;DHT22;57339;52.156;5.372;2024-01-15T06:37:59;2.70;99.90
69999;DHT22;57339;52.156;5.372;2024-01-15T06:40:26;2.70;99.90
69999;DHT22;57339;52.156;5.372;2024-01-15T06:42:53;2.70;99.90
69999;DHT22;57339;52.156;5.372;2024-01-15T06:45:20;2.70;99.90
69999;DHT22;57339;52.156;5.372;2024-01-15T06:47:47;2.70;99.90
69999;DHT22;57339;52.156;5.372;2024-01-15T06:50:16;2.70;99.90
69999;DHT22;57339;52.156;5.372;2024-01-15T06:52:45;2.70;99.90
69999;DHT22;57339;52.156;5.372;2024-01-15T06:55:13;2.70;99.90
69999;DHT22;57339;52.156;5.372;2024-01-15T06:57:40;2.70;99.90
69999;DHT22;57339;52.156;5.372;2024-01-15T07:00:07;2.70;99.90
69999;DHT22;57339;52.156;5.372;2024-01-15T07:02:35;2.60;99.90
69999;DHT22;57339;52.156;5.372;2024-01-15T07:05:02;2.60;99.90
69999;DHT22;57339;52.156;5.372;2024-01-15T07:07:29;2.60;99.90
69999;DHT22;57339;52.156;5.372;2024-01-15T07:09:56;2.60;99.90
69999;DHT22;57339;52.156;5.372;2024-01-15T07:12:23;2.60;99.90
69999;DHT22;57339;52.156;5.372;2024-01-15T07:14:53;2.60;99.90
69999;DHT22;57339;52.156;5.372;2024-01-15T07:17:20;2.50;99.90
69999;DHT22;57339;52.156;5.372;2024-01-15T07:19:47;2.50;99.90
69999;DHT22;57339;52.156;5.372;2024-01-15T07:22:17;2.40;99.90
69999;DHT22;57339;52.156;5.372;2024-01-15T07:24:46;2.30;99.90
69999;DHT22;57339;52.156;5.372;2024-01-15T07:27:13;2.30;99.90
69999;DHT22;57339;52.156;5.372;2024-01-15T07:29:40;2.30;99.90
69999;DHT22;57339;52.156;5.372;2024-01-15T07:32:07;2.40;99.90
69999;DHT22;57339;52.156;5.372;2024-01-15T07:34:34;2.40;99.90
69999;DHT22;57339;52.156;5.372;2024-01-15T07:37:01;2.40;99.90
69999;DHT22;57339;52.156;5.372;2024-01-15T07:39:28;2.40;99.90
69999;DHT22;57339;52.156;5.372;2024-01-15T07:41:55;2.40;99.90
69999;DHT22;57339;52.156;5.372;2024-01-15T07:44:22;2.40;99.90
69999;DHT22;57339;52.156;5.372;2024-01-15T07:46:52;2.40;99.90
69999;DHT22;57339;52.156;5.372;2024-01-15T07:49:22;2.40;99.90
69999;DHT22;57339;52.156;5.372;2024-01-15T07:51:52;2.40;99.90
69999;DHT22;57339;52.156;5.372;2024-01-15T07:54:22;2.40;99.90
69999;DHT22;57339;52.156;5.372;2024-01-15T07:57:01;2.30;99.90
69999;DHT22;57339;52.156;5.372;2024-01-15T07:59:29;2.40;99.90
69999;DHT22;57339;52.156;5.372;2024-01-15T08:01:57;2.30;99.90
69999;DHT22;57339;52.156;5.372;2024-01-15T08:04:25;2.40;99.90
69999;DHT22;57339;52.156;5.372;2024-01-15T08:06:55;2.30;99.90
69999;DHT22;57339;52.156;5.372;2024-01-15T08:09:22;2.40;99.90
69999;DHT22;57339;52.156;5.372;2024-01-15T08:11:50;2.40;99.90
69999;DHT22;57339;52.156;5.372;2024-01-15T08:14:17;2.40;99.90
69999;DHT22;57339;52.156;5.372;2024-01-15T08:16:47;2.40;99.90
69999;DHT22;57339;52.156;5.372;2024-01-15T08:19:14;2.40;99.90
69999;DHT22;57339;52.156;5.372;2024-01-15T08:21:41;2.50;99.90
69999;DHT22;57339;52.156;5.372;2024-01-15T08:24:08;2.50;99.90
69999;DHT22;57339;52.156;5.372;2024-01-15T08:26:35;2.50;99.90
69999;DHT22;57339;52.156;5.372;2024-01-15T08:29:02;2.40;99.90
69999;DHT22;57339;52.156;5.372;2024-01-15T08:31:31;2.40;99.90
69999;DHT22;57339;52.156;5.372;2024-01-15T08:33:59;2.30;99.90
69999;DHT22;57339;52.156;5.372;2024-01-15T08:36:29;2.30;99.90
69999;DHT22;57339;52.156;5.372;2024-01-15T08:38:56;2.20;99.90
69999;DHT22;57339;52.156;5.372;2024-01-15T08:41:23;2.20;99.90
69999;DHT22;57339;52.156;5.372;2024-01-15T08:43:50;2.30;99.90
69999;DHT22;57339;52.156;5.372;2024-01-15T08:46:17;2.20;99.90
69999;DHT22;57339;52.156;5.372;2024-01-15T08:48:45;2.30;99.90
69999;DHT22;57339;52.156;5.372;2024-01-15T08:51:13;2.30;99.90
69999;DHT22;57339;52.156;5.372;2024-01-15T08:53:40;2.30;99.90
69999;DHT22;57339;52.156;5.372;2024-01-15T08:56:06;2.30;99.90
69999;DHT22;57339;52.156;5.372;2024-01-15T08:58:35;2.30;99.90
69999;DHT22;57339;52.156;5.372;2024-01-15T09:01:01;2.30;99.90
69999;DHT22;57339;52.156;5.372;2024-01-15T09:03:29;2.40;99.90
69999;DHT22;57339;52.156;5.372;2024-01-15T09:05:57;2.40;99.90
69999;DHT22;57339;52.156;5.372;2024-01-15T09:08:24;2.40;99.90
69999;DHT22;57339;52.156;5.372;2024-01-15T09:10:51;2.40;99.90
69999;DHT22;57339;52.156;5.372;2024-01-15T09:13:18;2.40;99.90
69999;DHT22;57339;52.156;5.372;2024-01-15T09:15:47;2.40;99.90
69999;DHT22;57339;52.156;5.372;2024-01-15T09:18:18;2.40;99.90
69999;DHT22;57339;52.156;5.372;2024-01-15T09:20:47;2.40;99.90
69999;DHT22;57339;52.156;5.372;2024-01-15T09:23:13;2.40;99.90
69999;DHT22;57339;52.156;5.372;2024-01-15T09:25:41;2.40;99.90
69999;DHT22;57339;52.156;5.372;2024-01-15T09:28:08;2.40;99.90
69999;DHT22;57339;52.156;5.372;2024-01-15T09:30:35;2.60;99.90
69999;DHT22;57339;52.156;5.372;2024-01-15T09:33:04;2.40;99.90
69999;DHT22;57339;52.156;5.372;2024-01-15T09:35:31;2.40;99.90
69999;DHT22;57339;52.156;5.372;2024-01-15T09:37:58;2.40;99.90
69999;DHT22;57339;52.156;5.372;2024-01-15T09:40:30;2.50;99.90
69999;DHT22;57339;52.156;5.372;2024-01-15T09:42:58;2.50;99.90
69999;DHT22;57339;52.156;5.372;2024-01-15T09:45:25;2.60;99.90
69999;DHT22;57339;52.156;5.372;2024-01-15T09:47:53;2.60;99.90
69999;DHT22;57339;52.156;5.372;2024-01-15T09:50:20;2.60;99.90
69999;DHT22;57339;52.156;5.372;2024-01-15T09:52:48;2.60;99.90
69999;DHT22;57339;52.156;5.372;2024-01-15T09:55:17;2.60;99.90
69999;DHT22;57339;52.156;5.372;2024-01-15T09:57:52;2.60;99.90
69999;DHT22;57339;52.156;5.372;2024-01-15T10:00:21;2.60;99.90
69999;DHT22;57339;52.156;5.372;2024-01-15T10:02:52;2.60;99.90
69999;DHT22;57339;52.156;5.372;2024-01-15T10:05:22;2.60;99.90
69999;DHT22;57339;52.156;5.372;2024-01-15T10:07:53;2.60;99.90
69999;DHT22;57339;52.156;5.372;2024-01-15T10:10:21;2.70;99.90
69999;DHT22;57339;52.156;5.372;2024-01-15T10:12:52;2.80;99.90
69999;DHT22;57339;52.156;5.372;2024-01-15T10:15:23;2.80;99.90
69999;DHT22;57339;52.156;5.372;2024-01-15T10:17:50;2.90;99.90
69999;DHT22;57339;52.156;5.372;2024-01-15T10:20:17;2.90;99.90
69999;DHT22;57339;52.156;5.372;2024-01-15T10:22:47;3.00;99.90
69999;DHT22;57339;52.156;5.372;2024-01-15T10:25:14;2.90;99.90
69999;DHT22;57339;52.156;5.372;2024-01-15T10:27:41;2.90;99.90
69999;DHT22;57339;52.156;5.372;2024-01-15T10:30:10;2.90;99.90
69999;DHT22;57339;52.156;5.372;2024-01-15T10:32:37;2.90;99.90
69999;DHT22;57339;52.156;5.372;2024-01-15T10:35:04;2.80;99.90
69999;DHT22;57339;52.156;5.372;2024-01-15T10:37:33;2.70;99.90
69999;DHT22;57339;52.156;5.372;2024-01-15T10:40:04;2.60;99.90
69999;DHT22;57339;52.156;5.372;2024-01-15T10:42:31;2.70;99.90
69999;DHT22;57339;52.156;5.372;2024-01-15T10:44:59;2.70;99.90
69999;DHT22;57339;52.156;5.372;2024-01-15T10:47:26;2.70;99.90
69999;DHT22;57339;52.156;5.372;2024-01-15T10:49:53;2.70;99.90
69999;DHT22;57339;52.156;5.372;2024-01-15T10:52:22;2.70;99.90
69999;DHT22;57339;52.156;5.372;2024-01-15T10:54:53;2.80;99.90
69999;DHT22;57339;52.156;5.372;2024-01-15T10:57:23;2.90;99.90
69999;DHT22;57339;52.156;5.372;2024-01-15T10:59:52;3.00;99.90
69999;DHT22;57339;52.156;5.372;2024-01-15T11:02:23;3.00;99.90
69999;DHT22;57339;52.156;5.372;2024-01-15T11:04:53;3.00;99.90
69999;DHT22;57339;52.156;5.372;2024-01-15T11:07:22;3.10;99.90
69999;DHT22;57339;52.156;5.372;2024-01-15T11:09:54;3.10;99.90
69999;DHT22;57339;52.156;5.372;2024-01-15T11:12:21;3.10;99.90
69999;DHT22;57339;52.156;5.372;2024-01-15T11:14:52;3.10;99.90
69999;DHT22;57339;52.156;5.372;2024-01-15T11:17:19;3.00;99.90
69999;DHT22;57339;52.156;5.372;2024-01-15T11:19:48;3.00;99.90
69999;DHT22;57339;52.156;5.372;2024-01-15T11:25:02;3.00;99.90
69999;DHT22;57339;52.156;5.372;2024-01-15T11:27:47;3.00;99.90
69999;DHT22;57339;52.156;5.372;2024-01-15T11:30:18;3.00;99.90
69999;DHT22;57339;52.156;5.372;2024-01-15T11:32:48;3.00;99.90
69999;DHT22;57339;52.156;5.372;2024-01-15T11:35:18;3.10;99.90
69999;DHT22;57339;52.156;5.372;2024-01-15T11:40:23;3.10;99.90
69999;DHT22;57339;52.156;5.372;2024-01-15T11:42:53;3.10;99.90
69999;DHT22;57339;52.156;5.372;2024-01-15T11:45:23;3.20;99.90
69999;DHT22;57339;52.156;5.372;2024-01-15T11:48:10;3.20;99.90
69999;DHT22;57339;52.156;5.372;2024-01-15T11:50:47;3.20;99.90
69999;DHT22;57339;52.156;5.372;2024-01-15T11:53:33;3.10;99.90
69999;DHT22;57339;52.156;5.372;2024-01-15T11:56:02;3.10;99.90
69999;DHT22;57339;52.156;5.372;2024-01-15T11:58:30;3.20;99.90
69999;DHT22;57339;52.156;5.372;2024-01-15T12:00:57;3.20;99.90
69999;DHT22;57339;52.156;5.372;2024-01-15T12:03:25;3.20;99.90
69999;DHT22;57339;52.156;5.372;2024-01-15T12:05:52;3.30;99.90
69999;DHT22;57339;52.156;5.372;2024-01-15T12:08:27;3.30;99.90
69999;DHT22;57339;52.156;5.372;2024-01-15T12:10:54;3.40;99.90
69999;DHT22;57339;52.156;5.372;2024-01-15T12:13:21;3.30;99.90
69999;DHT22;57339;52.156;5.372;2024-01-15T12:15:48;3.30;99.90
69999;DHT22;57339;52.156;5.372;2024-01-15T12:18:18;3.40;99.90
69999;DHT22;57339;52.156;5.372;2024-01-15T12:20:48;3.40;99.90
69999;DHT22;57339;52.156;5.372;2024-01-15T12:23:18;3.30;99.90
69999;DHT22;57339;52.156;5.372;2024-01-15T12:25:48;3.20;99.90
69999;DHT22;57339;52.156;5.372;2024-01-15T12:28:16;3.30;99.90
69999;DHT22;57339;52.156;5.372;2024-01-15T12:30:46;3.30;99.90
69999;DHT22;57339;52.156;5.372;2024-01-15T12:33:15;3.20;99.90
69999;DHT22;57339;52.156;5.372;2024-01-15T12:35:44;3.30;99.90
69999;DHT22;57339;52.156;5.372;2024-01-15T12:38:11;3.20;99.90
69999;DHT22;57339;52.156;5.372;2024-01-15T12:40:38;3.10;99.90
69999;DHT22;57339;52.156;5.372;2024-01-15T12:43:06;3.00;99.90
69999;DHT22;57339;52.156;5.372;2024-01-15T12:45:36;2.90;99.90
69999;DHT22;57339;52.156;5.372;2024-01-15T12:48:04;2.90;99.90
69999;DHT22;57339;52.156;5.372;2024-01-15T12:50:33;2.80;99.90
69999;DHT22;57339;52.156;5.372;2024-01-15T12:53:02;2.80;99.90
69999;DHT22;57339;52.156;5.372;2024-01-15T12:55:29;2.80;99.90
69999;DHT22;57339;52.156;5.372;2024-01-15T12:58:06;2.80;99.90
69999;DHT22;57339;52.156;5.372;2024-01-15T13:00:34;2.80;99.90
69999;DHT22;57339;52.156;5.372;2024-01-15T13:03:04;2.80;99.90
69999;DHT22;57339;52.156;5.372;2024-01-15T13:05:56;2.80;99.90
69999;DHT22;57339;52.156;5.372;2024-01-15T13:08:23;2.80;99.90
69999;DHT22;57339;52.156;5.372;2024-01-15T13:10:54;2.90;99.90
69999;DHT22;57339;52.156;5.372;2024-01-15T13:13:21;2.80;99.90
69999;DHT22;57339;52.156;5.372;2024-01-15T13:15:48;2.90;99.90
69999;DHT22;57339;52.156;5.372;2024-01-15T13:18:23;2.90;99.90
69999;DHT22;57339;52.156;5.372;2024-01-15T13:20:53;2.90;99.90
69999;DHT22;57339;52.156;5.372;2024-01-15T13:23:22;2.90;99.90
69999;DHT22;57339;52.156;5.372;2024-01-15T13:25:49;2.80;99.90
69999;DHT22;57339;52.156;5.372;2024-01-15T13:28:17;2.80;99.90
69999;DHT22;57339;52.156;5.372;2024-01-15T13:30:44;2.80;99.90
69999;DHT22;57339;52.156;5.372;2024-01-15T13:33:11;2.80;99.90
69999;DHT22;57339;52.156;5.372;2024-01-15T13:35:38;2.80;99.90
69999;DHT22;57339;52.156;5.372;2024-01-15T13:38:05;2.90;99.90
69999;DHT22;57339;52.156;5.372;2024-01-15T13:40:36;3.00;99.90
69999;DHT22;57339;52.156;5.372;2024-01-15T13:43:03;3.00;99.90
69999;DHT22;57339;52.156;5.372;2024-01-15T13:45:30;3.10;99.90
69999;DHT22;57339;52.156;5.372;2024-01-15T13:47:57;3.10;99.90
69999;DHT22;57339;52.156;5.372;2024-01-15T13:50:24;3.10;99.90
69999;DHT22;57339;52.156;5.372;2024-01-15T13:52:52;3.10;99.90
69999;DHT22;57339;52.156;5.372;2024-01-15T13:55:19;3.20;99.90
69999;DHT22;57339;52.156;5.372;2024-01-15T13:57:48;3.20;99.90
69999;DHT22;57339;52.156;5.372;2024-01-15T14:00:19;3.20;99.90
69999;DHT22;57339;52.156;5.372;2024-01-15T14:02:48;3.20;99.90
69999;DHT22;57339;52.156;5.372;2024-01-15T14:05:15;3.20;99.90
69999;DHT22;57339;52.156;5.372;2024-01-15T14:07:43;3.20;99.90
69999;DHT22;57339;52.156;5.372;2024-01-15T14:10:10;3.20;99.90
69999;DHT22;57339;52.156;5.372;2024-01-15T14:12:37;3.20;99.90
69999;DHT22;57339;52.156;5.372;2024-01-15T14:15:05;3.30;99.90
69999;DHT22;57339;52.156;5.372;2024-01-15T14:17:32;3.30;99.90
69999;DHT22;57339;52.156;5.372;2024-01-15T14:20:00;3.30;99.90
69999;DHT22;57339;52.156;5.372;2024-01-15T14:22:27;3.40;99.90
69999;DHT22;57339;52.156;5.372;2024-01-15T14:24:54;3.40;99.90
69999;DHT22;57339;52.156;5.372;2024-01-15T14:27:21;3.40;99.90
69999;DHT22;57339;52.156;5.372;2024-01-15T14:29:48;3.40;99.90
69999;DHT22;57339;52.156;5.372;2024-01-15T14:32:17;3.40;99.90
69999;DHT22;57339;52.156;5.372;2024-01-15T14:34:47;3.40;99.90
69999;DHT22;57339;52.156;5.372;2024-01-15T14:37:15;3.40;99.90
69999;DHT22;57339;52.156;5.372;2024-01-15T14:39:41;3.50;99.90
69999;DHT22;57339;52.156;5.372;2024-01-15T14:42:09;3.50;99.90
69999;DHT22;57339;52.156;5.372;2024-01-15T14:44:36;3.50;99.90
69999;DHT22;57339;52.156;5.372;2024-01-15T14:47:05;3.50;99.90
69999;DHT22;57339;52.156;5.372;2024-01-15T14:49:32;3.50;99.90
69999;DHT22;57339;52.156;5.372;2024-01-15T14:51:59;3.50;99.90
69999;DHT22;57339;52.156;5.372;2024-01-15T14:54:26;3.50;99.90
69999;DHT22;57339;52.156;5.372;2024-01-15T14:56:53;3.50;99.90
69999;DHT22;57339;52.156;5.372;2024-01-15T14:59:21;3.60;99.90
69999;DHT22;57339;52.156;5.372;2024-01-15T15:01:48;3.50;99.90
69999;DHT22;57339;52.156;5.372;2024-01-15T15:04:18;3.60;99.90
69999;DHT22;57339;52.156;5.372;2024-01-15T15:06:46;3.50;99.90
69999;DHT22;57339;52.156;5.372;2024-01-15T15:09:14;3.50;99.90
69999;DHT22;57339;52.156;5.372;2024-01-15T15:11:41;3.50;99.90
69999;DHT22;57339;52.156;5.372;2024-01-15T15:14:11;3.50;99.90
69999;DHT22;57339;52.156;5.372;2024-01-15T15:16:38;3.50;99.90
69999;DHT22;57339;52.156;5.372;2024-01-15T15:19:05;3.40;99.90
69999;DHT22;57339;52.156;5.372;2024-01-15T15:21:33;3.40;99.90
69999;DHT22;57339;52.156;5.372;2024-01-15T15:24:00;3.50;99.90
69999;DHT22;57339;52.156;5.372;2024-01-15T15:26:27;3.50;99.90
69999;DHT22;57339;52.156;5.372;2024-01-15T15:28:56;3.50;99.90
69999;DHT22;57339;52.156;5.372;2024-01-15T15:31:23;3.50;99.90
69999;DHT22;57339;52.156;5.372;2024-01-15T15:33:53;3.50;99.90
69999;DHT22;57339;52.156;5.372;2024-01-15T15:36:20;3.50;99.90
69999;DHT22;57339;52.156;5.372;2024-01-15T15:38:48;3.40;99.90
69999;DHT22;57339;52.156;5.372;2024-01-15T15:41:17;3.40;99.90
69999;DHT22;57339;52.156;5.372;2024-01-15T15:43:45;3.40;99.90
69999;DHT22;57339;52.156;5.372;2024-01-15T15:46:12;3.30;99.90
69999;DHT22;57339;52.156;5.372;2024-01-15T15:48:39;3.30;99.90
69999;DHT22;57339;52.156;5.372;2024-01-15T15:51:08;3.40;99.90
69999;DHT22;57339;52.156;5.372;2024-01-15T15:53:36;3.30;99.90
69999;DHT22;57339;52.156;5.372;2024-01-15T15:56:03;3.40;99.90
69999;DHT22;57339;52.156;5.372;2024-01-15T15:58:33;3.30;99.90